Tortola's Pride — HO-3796 — position and weather

sailwx.info

Track history (hours):
 
Tides and Currents Weather Stations Pressure Air Temp Water Temp Dewpoint Dewpoint Depression Visibility Wind Speed Wind Dir Waves Ship Positions

Tortola's Pride

Last reported at 2016-Aug-29 17:33 UTC. Time now 2016-Aug-29 18:04 UTC.
Position N 18°28' W 066°06'.

Length 49 m; draft 2.8 m.

Type: Cargo ship. MMSI: 355921000.

Date/timePositionNaut miles runAvg speedWind from/ knotsBaromVisibWave heightAir tempDewpointWater temp
2016-Aug-29 17:33N 18°28' W 066°06'0 0.0
2016-Aug-29 16:34N 18°28' W 066°06'0 0.0
2016-Aug-29 15:33N 18°28' W 066°06'0 0.0
2016-Aug-29 14:33N 18°28' W 066°06'0 0.0
2016-Aug-29 13:32N 18°28' W 066°06'0 0.0
2016-Aug-29 12:34N 18°28' W 066°06'66 8.3
2016-Aug-29 04:31N 18°26' W 064°56'9 9.5
2016-Aug-29 03:33N 18°23' W 064°47'9 9.1
2016-Aug-29 02:33N 18°24' W 064°37'1 0.1
2016-Aug-28 11:12N 18°25' W 064°36'6 8.9
2016-Aug-28 10:33N 18°23' W 064°42'10 9.6
2016-Aug-28 09:33N 18°25' W 064°52'68 9.5
2016-Aug-28 02:25N 18°30' W 066°03'4 3.5
2016-Aug-28 01:24N 18°28' W 066°06'0 0.0
2016-Aug-28 00:34N 18°28' W 066°06'0 0.0
2016-Aug-27 23:34N 18°28' W 066°06'0 0.0
2016-Aug-27 22:13N 18°28' W 066°06'0 0.0
2016-Aug-27 21:33N 18°28' W 066°06'0 0.0
2016-Aug-27 20:33N 18°28' W 066°06'0 0.0
2016-Aug-27 19:33N 18°28' W 066°06'0 0.0
2016-Aug-27 18:33N 18°28' W 066°06'0 0.0
2016-Aug-27 16:33N 18°28' W 066°06'0 0.0
2016-Aug-27 15:19N 18°28' W 066°06'0 0.0
2016-Aug-27 14:33N 18°28' W 066°06'0 0.0
2016-Aug-27 13:20N 18°28' W 066°06'0 0.0
2016-Aug-27 11:33N 18°28' W 066°06'0 0.0
2016-Aug-27 10:33N 18°28' W 066°06'0 0.0
2016-Aug-27 09:33N 18°28' W 066°06'0 0.0
2016-Aug-27 08:34N 18°28' W 066°06'0 0.0
2016-Aug-27 07:33N 18°28' W 066°06'0 0.0
2016-Aug-27 06:33N 18°28' W 066°06'0 0.0
2016-Aug-27 04:33N 18°28' W 066°06'0 0.0
2016-Aug-27 03:33N 18°28' W 066°06'0 0.0
2016-Aug-27 02:33N 18°28' W 066°06'0 0.0
2016-Aug-27 01:33N 18°28' W 066°06'0 0.0
2016-Aug-27 00:33N 18°28' W 066°06'0 0.0
2016-Aug-26 23:33N 18°28' W 066°06'0 0.0
2016-Aug-26 22:18N 18°28' W 066°06'0 0.0
2016-Aug-26 21:32N 18°28' W 066°06'0 0.0
2016-Aug-26 20:33N 18°28' W 066°06'0 0.0
2016-Aug-26 19:32N 18°28' W 066°06'0 0.0
2016-Aug-26 18:31N 18°28' W 066°06'0 0.0
2016-Aug-26 17:31N 18°28' W 066°06'0 0.0
2016-Aug-26 16:26N 18°28' W 066°06'0 0.0
2016-Aug-26 15:33N 18°28' W 066°06'0 0.0
2016-Aug-26 14:34N 18°28' W 066°06'0 0.0
2016-Aug-26 13:34N 18°28' W 066°06'77 8.5
2016-Aug-26 04:33N 18°23' W 064°45'9 0.5
2016-Aug-25 09:08N 18°25' W 064°36'0 0.2
2016-Aug-25 08:34N 18°25' W 064°36'0 0.0
2016-Aug-25 07:33N 18°25' W 064°36'0 0.0
2016-Aug-25 06:34N 18°25' W 064°36'0 0.0
2016-Aug-25 04:34N 18°25' W 064°36'0 0.0
2016-Aug-25 03:34N 18°25' W 064°36'0 0.0
2016-Aug-25 02:33N 18°25' W 064°36'0 0.0
2016-Aug-25 01:33N 18°25' W 064°36'0 0.0
2016-Aug-25 00:33N 18°25' W 064°36'0 0.0
2016-Aug-24 23:33N 18°25' W 064°36'0 0.0
2016-Aug-24 22:33N 18°25' W 064°36'0 0.0
2016-Aug-24 21:33N 18°25' W 064°36'0 0.1
2016-Aug-24 20:33N 18°25' W 064°36'8 7.9
2016-Aug-24 19:33N 18°23' W 064°44'4 4.4
2016-Aug-24 18:33N 18°20' W 064°48'0 0.0
2016-Aug-24 17:34N 18°20' W 064°48'0 0.0
2016-Aug-24 16:34N 18°20' W 064°48'0 0.0
2016-Aug-24 15:34N 18°20' W 064°48'0 0.0
2016-Aug-24 14:34N 18°20' W 064°48'0 0.0
2016-Aug-24 13:33N 18°20' W 064°48'5 4.8
2016-Aug-24 12:34N 18°23' W 064°44'7 0.3
2016-Aug-23 17:34N 18°24' W 064°37'9 9.3
2016-Aug-23 16:34N 18°22' W 064°46'73 3.2
2016-Aug-22 17:33N 18°30' W 066°03'3 3.4
2016-Aug-22 16:34N 18°28' W 066°06'0 0.0
2016-Aug-22 15:34N 18°28' W 066°06'0 0.0
2016-Aug-22 14:33N 18°28' W 066°06'0 0.0
2016-Aug-22 13:33N 18°28' W 066°06'0 0.0
2016-Aug-22 12:34N 18°28' W 066°06'0 0.0
2016-Aug-22 11:34N 18°28' W 066°06'65 8.2
2016-Aug-22 03:33N 18°26' W 064°57'9 9.2
2016-Aug-22 02:34N 18°24' W 064°48'10 9.6
2016-Aug-22 01:34N 18°23' W 064°38'3 0.4
2016-Aug-21 17:31N 18°25' W 064°35'7 1.2
2016-Aug-21 11:33N 18°28' W 064°28'10 0.5
2016-Aug-20 14:31N 18°24' W 064°37'8 8.8
2016-Aug-20 13:34N 18°23' W 064°46'78 8.7
2016-Aug-20 04:34N 18°28' W 066°08'1 1.5
2016-Aug-20 03:33N 18°28' W 066°06'0 0.0
2016-Aug-20 02:33N 18°28' W 066°06'0 0.0
2016-Aug-20 01:34N 18°28' W 066°06'0 0.0
2016-Aug-20 00:34N 18°28' W 066°06'0 0.0
2016-Aug-19 23:33N 18°28' W 066°06'0 0.0
2016-Aug-19 22:33N 18°28' W 066°06'0 0.0
2016-Aug-19 21:33N 18°28' W 066°06'0 0.0
2016-Aug-19 20:33N 18°28' W 066°06'0 0.0
2016-Aug-19 19:33N 18°28' W 066°06'0 0.0
2016-Aug-19 18:33N 18°28' W 066°06'  
Track history (hours):
 
Tides and Currents Weather Stations Pressure Air Temp Water Temp Dewpoint Dewpoint Depression Visibility Wind Speed Wind Dir Waves Ship Positions

Tortola's Pride

Last reported at 2016-Aug-29 17:33 UTC. Time now 2016-Aug-29 18:04 UTC.
Position N 18°28' W 066°06'.

Length 49 m; draft 2.8 m.

Type: Cargo ship. MMSI: 355921000.

Date/timePositionNaut miles runAvg speedWind from/ knotsBaromVisibWave heightAir tempDewpointWater temp
2016-Aug-29 17:33N 18°28' W 066°06'0 0.0
2016-Aug-29 16:34N 18°28' W 066°06'0 0.0
2016-Aug-29 15:33N 18°28' W 066°06'0 0.0
2016-Aug-29 14:33N 18°28' W 066°06'0 0.0
2016-Aug-29 13:32N 18°28' W 066°06'0 0.0
2016-Aug-29 12:34N 18°28' W 066°06'66 8.3
2016-Aug-29 04:31N 18°26' W 064°56'9 9.5
2016-Aug-29 03:33N 18°23' W 064°47'9 9.1
2016-Aug-29 02:33N 18°24' W 064°37'1 0.1
2016-Aug-28 11:12N 18°25' W 064°36'6 8.9
2016-Aug-28 10:33N 18°23' W 064°42'10 9.6
2016-Aug-28 09:33N 18°25' W 064°52'68 9.5
2016-Aug-28 02:25N 18°30' W 066°03'4 3.5
2016-Aug-28 01:24N 18°28' W 066°06'0 0.0
2016-Aug-28 00:34N 18°28' W 066°06'0 0.0
2016-Aug-27 23:34N 18°28' W 066°06'0 0.0
2016-Aug-27 22:13N 18°28' W 066°06'0 0.0
2016-Aug-27 21:33N 18°28' W 066°06'0 0.0
2016-Aug-27 20:33N 18°28' W 066°06'0 0.0
2016-Aug-27 19:33N 18°28' W 066°06'0 0.0
2016-Aug-27 18:33N 18°28' W 066°06'0 0.0
2016-Aug-27 16:33N 18°28' W 066°06'0 0.0
2016-Aug-27 15:19N 18°28' W 066°06'0 0.0
2016-Aug-27 14:33N 18°28' W 066°06'0 0.0
2016-Aug-27 13:20N 18°28' W 066°06'0 0.0
2016-Aug-27 11:33N 18°28' W 066°06'0 0.0
2016-Aug-27 10:33N 18°28' W 066°06'0 0.0
2016-Aug-27 09:33N 18°28' W 066°06'0 0.0
2016-Aug-27 08:34N 18°28' W 066°06'0 0.0
2016-Aug-27 07:33N 18°28' W 066°06'0 0.0
2016-Aug-27 06:33N 18°28' W 066°06'0 0.0
2016-Aug-27 04:33N 18°28' W 066°06'0 0.0
2016-Aug-27 03:33N 18°28' W 066°06'0 0.0
2016-Aug-27 02:33N 18°28' W 066°06'0 0.0
2016-Aug-27 01:33N 18°28' W 066°06'0 0.0
2016-Aug-27 00:33N 18°28' W 066°06'0 0.0
2016-Aug-26 23:33N 18°28' W 066°06'0 0.0
2016-Aug-26 22:18N 18°28' W 066°06'0 0.0
2016-Aug-26 21:32N 18°28' W 066°06'0 0.0
2016-Aug-26 20:33N 18°28' W 066°06'0 0.0
2016-Aug-26 19:32N 18°28' W 066°06'0 0.0
2016-Aug-26 18:31N 18°28' W 066°06'0 0.0
2016-Aug-26 17:31N 18°28' W 066°06'0 0.0
2016-Aug-26 16:26N 18°28' W 066°06'0 0.0
2016-Aug-26 15:33N 18°28' W 066°06'0 0.0
2016-Aug-26 14:34N 18°28' W 066°06'0 0.0
2016-Aug-26 13:34N 18°28' W 066°06'77 8.5
2016-Aug-26 04:33N 18°23' W 064°45'9 0.5
2016-Aug-25 09:08N 18°25' W 064°36'0 0.2
2016-Aug-25 08:34N 18°25' W 064°36'0 0.0
2016-Aug-25 07:33N 18°25' W 064°36'0 0.0
2016-Aug-25 06:34N 18°25' W 064°36'0 0.0
2016-Aug-25 04:34N 18°25' W 064°36'0 0.0
2016-Aug-25 03:34N 18°25' W 064°36'0 0.0
2016-Aug-25 02:33N 18°25' W 064°36'0 0.0
2016-Aug-25 01:33N 18°25' W 064°36'0 0.0
2016-Aug-25 00:33N 18°25' W 064°36'0 0.0
2016-Aug-24 23:33N 18°25' W 064°36'0 0.0
2016-Aug-24 22:33N 18°25' W 064°36'0 0.0
2016-Aug-24 21:33N 18°25' W 064°36'0 0.1
2016-Aug-24 20:33N 18°25' W 064°36'8 7.9
2016-Aug-24 19:33N 18°23' W 064°44'4 4.4
2016-Aug-24 18:33N 18°20' W 064°48'0 0.0
2016-Aug-24 17:34N 18°20' W 064°48'0 0.0
2016-Aug-24 16:34N 18°20' W 064°48'0 0.0
2016-Aug-24 15:34N 18°20' W 064°48'0 0.0
2016-Aug-24 14:34N 18°20' W 064°48'0 0.0
2016-Aug-24 13:33N 18°20' W 064°48'5 4.8
2016-Aug-24 12:34N 18°23' W 064°44'7 0.3
2016-Aug-23 17:34N 18°24' W 064°37'9 9.3
2016-Aug-23 16:34N 18°22' W 064°46'73 3.2
2016-Aug-22 17:33N 18°30' W 066°03'3 3.4
2016-Aug-22 16:34N 18°28' W 066°06'0 0.0
2016-Aug-22 15:34N 18°28' W 066°06'0 0.0
2016-Aug-22 14:33N 18°28' W 066°06'0 0.0
2016-Aug-22 13:33N 18°28' W 066°06'0 0.0
2016-Aug-22 12:34N 18°28' W 066°06'0 0.0
2016-Aug-22 11:34N 18°28' W 066°06'65 8.2
2016-Aug-22 03:33N 18°26' W 064°57'9 9.2
2016-Aug-22 02:34N 18°24' W 064°48'10 9.6
2016-Aug-22 01:34N 18°23' W 064°38'3 0.4
2016-Aug-21 17:31N 18°25' W 064°35'7 1.2
2016-Aug-21 11:33N 18°28' W 064°28'10 0.5
2016-Aug-20 14:31N 18°24' W 064°37'8 8.8
2016-Aug-20 13:34N 18°23' W 064°46'78 8.7
2016-Aug-20 04:34N 18°28' W 066°08'1 1.5
2016-Aug-20 03:33N 18°28' W 066°06'0 0.0
2016-Aug-20 02:33N 18°28' W 066°06'0 0.0
2016-Aug-20 01:34N 18°28' W 066°06'0 0.0
2016-Aug-20 00:34N 18°28' W 066°06'0 0.0
2016-Aug-19 23:33N 18°28' W 066°06'0 0.0
2016-Aug-19 22:33N 18°28' W 066°06'0 0.0
2016-Aug-19 21:33N 18°28' W 066°06'0 0.0
2016-Aug-19 20:33N 18°28' W 066°06'0 0.0
2016-Aug-19 19:33N 18°28' W 066°06'0 0.0
2016-Aug-19 18:33N 18°28' W 066°06'  

Dump ship's entire track history